sensor_id;sensor_type;location;lat;lon;timestamp;pressure;altitude;pressure_sealevel;temperature;humidity
32638;BME280;19045;52.268;10.506;2023-05-09T00:01:47;101107.25;;;11.60;60.78
32638;BME280;19045;52.268;10.506;2023-05-09T00:04:14;101112.81;;;11.53;60.80
32638;BME280;19045;52.268;10.506;2023-05-09T00:06:41;101112.00;;;11.53;61.29
32638;BME280;19045;52.268;10.506;2023-05-09T00:09:07;101114.41;;;11.54;61.84
32638;BME280;19045;52.268;10.506;2023-05-09T00:11:34;101107.66;;;11.52;62.58
32638;BME280;19045;52.268;10.506;2023-05-09T00:14:02;101115.41;;;11.48;62.60
32638;BME280;19045;52.268;10.506;2023-05-09T00:16:29;101112.50;;;11.50;62.88
32638;BME280;19045;52.268;10.506;2023-05-09T00:18:57;101120.22;;;11.46;63.03
32638;BME280;19045;52.268;10.506;2023-05-09T00:21:24;101110.19;;;11.41;63.44
32638;BME280;19045;52.268;10.506;2023-05-09T00:23:51;101111.25;;;11.40;63.99
32638;BME280;19045;52.268;10.506;2023-05-09T00:26:17;101105.81;;;11.35;64.00
32638;BME280;19045;52.268;10.506;2023-05-09T00:28:44;101110.19;;;11.41;63.86
32638;BME280;19045;52.268;10.506;2023-05-09T00:31:12;101109.16;;;11.43;64.42
32638;BME280;19045;52.268;10.506;2023-05-09T00:33:38;101119.97;;;11.31;65.04
32638;BME280;19045;52.268;10.506;2023-05-09T00:36:06;101106.84;;;11.34;65.28
32638;BME280;19045;52.268;10.506;2023-05-09T00:38:32;101103.13;;;11.35;65.47
32638;BME280;19045;52.268;10.506;2023-05-09T00:40:59;101103.03;;;11.30;65.55
32638;BME280;19045;52.268;10.506;2023-05-09T00:43:27;101111.34;;;11.29;66.04
32638;BME280;19045;52.268;10.506;2023-05-09T00:45:54;101110.47;;;11.23;66.08
32638;BME280;19045;52.268;10.506;2023-05-09T00:48:22;101100.25;;;11.25;66.02
32638;BME280;19045;52.268;10.506;2023-05-09T00:50:48;101090.56;;;11.24;66.69
32638;BME280;19045;52.268;10.506;2023-05-09T00:53:17;101096.91;;;11.18;66.66
32638;BME280;19045;52.268;10.506;2023-05-09T00:55:44;101086.09;;;11.13;67.69
32638;BME280;19045;52.268;10.506;2023-05-09T00:58:11;101083.16;;;11.15;66.99
32638;BME280;19045;52.268;10.506;2023-05-09T01:00:38;101087.16;;;11.12;66.89
32638;BME280;19045;52.268;10.506;2023-05-09T01:03:05;101087.38;;;11.11;67.74
32638;BME280;19045;52.268;10.506;2023-05-09T01:05:40;101076.56;;;11.06;68.45
32638;BME280;19045;52.268;10.506;2023-05-09T01:08:13;101077.75;;;10.98;69.00
32638;BME280;19045;52.268;10.506;2023-05-09T01:10:47;101075.56;;;10.95;69.01
32638;BME280;19045;52.268;10.506;2023-05-09T01:13:26;101079.88;;;10.96;69.28
32638;BME280;19045;52.268;10.506;2023-05-09T01:16:00;101073.84;;;10.89;69.24
32638;BME280;19045;52.268;10.506;2023-05-09T01:18:34;101073.03;;;10.88;69.72
32638;BME280;19045;52.268;10.506;2023-05-09T01:21:09;101067.09;;;10.86;69.50
32638;BME280;19045;52.268;10.506;2023-05-09T01:26:39;101058.25;;;10.74;70.22
32638;BME280;19045;52.268;10.506;2023-05-09T01:29:33;101048.00;;;10.71;70.92
32638;BME280;19045;52.268;10.506;2023-05-09T01:32:15;101048.50;;;10.68;70.86
32638;BME280;19045;52.268;10.506;2023-05-09T01:34:44;101046.28;;;10.65;71.34
32638;BME280;19045;52.268;10.506;2023-05-09T01:37:13;101046.97;;;10.72;71.29
32638;BME280;19045;52.268;10.506;2023-05-09T01:39:42;101048.34;;;10.75;70.67
32638;BME280;19045;52.268;10.506;2023-05-09T01:42:11;101045.09;;;10.73;71.42
32638;BME280;19045;52.268;10.506;2023-05-09T01:44:41;101041.31;;;10.74;71.24
32638;BME280;19045;52.268;10.506;2023-05-09T01:47:09;101045.81;;;10.68;71.85
32638;BME280;19045;52.268;10.506;2023-05-09T01:49:37;101036.44;;;10.71;71.49
32638;BME280;19045;52.268;10.506;2023-05-09T01:52:07;101043.13;;;10.68;71.60
32638;BME280;19045;52.268;10.506;2023-05-09T01:54:36;101046.28;;;10.65;71.78
32638;BME280;19045;52.268;10.506;2023-05-09T01:57:05;101037.91;;;10.62;72.41
32638;BME280;19045;52.268;10.506;2023-05-09T01:59:33;101039.06;;;10.66;72.45
32638;BME280;19045;52.268;10.506;2023-05-09T02:02:02;101041.19;;;10.64;72.50
32638;BME280;19045;52.268;10.506;2023-05-09T02:04:29;101052.72;;;10.64;72.55
32638;BME280;19045;52.268;10.506;2023-05-09T02:06:56;101038.50;;;10.64;72.50
32638;BME280;19045;52.268;10.506;2023-05-09T02:09:24;101035.53;;;10.65;72.69
32638;BME280;19045;52.268;10.506;2023-05-09T02:11:51;101034.66;;;10.60;73.04
32638;BME280;19045;52.268;10.506;2023-05-09T02:14:19;101029.63;;;10.63;73.08
32638;BME280;19045;52.268;10.506;2023-05-09T02:16:46;101034.72;;;10.65;72.67
32638;BME280;19045;52.268;10.506;2023-05-09T02:19:14;101027.31;;;10.55;72.84
32638;BME280;19045;52.268;10.506;2023-05-09T02:21:42;101027.94;;;10.46;73.66
32638;BME280;19045;52.268;10.506;2023-05-09T02:24:09;101030.06;;;10.44;74.00
32638;BME280;19045;52.268;10.506;2023-05-09T02:26:35;101021.19;;;10.43;73.89
32638;BME280;19045;52.268;10.506;2023-05-09T02:29:04;101029.09;;;10.50;73.52
32638;BME280;19045;52.268;10.506;2023-05-09T02:31:32;101024.44;;;10.45;73.75
32638;BME280;19045;52.268;10.506;2023-05-09T02:34:01;101025.75;;;10.43;74.26
32638;BME280;19045;52.268;10.506;2023-05-09T02:36:31;101023.06;;;10.43;74.21
32638;BME280;19045;52.268;10.506;2023-05-09T02:38:58;101024.03;;;10.36;74.67
32638;BME280;19045;52.268;10.506;2023-05-09T02:41:25;101031.41;;;10.29;74.96
32638;BME280;19045;52.268;10.506;2023-05-09T02:43:52;101023.25;;;10.24;74.87
32638;BME280;19045;52.268;10.506;2023-05-09T02:46:19;101022.69;;;10.22;75.10
32638;BME280;19045;52.268;10.506;2023-05-09T02:48:46;101022.19;;;10.25;75.35
32638;BME280;19045;52.268;10.506;2023-05-09T02:51:12;101019.09;;;10.17;75.53
32638;BME280;19045;52.268;10.506;2023-05-09T02:53:40;101020.97;;;10.16;75.59
32638;BME280;19045;52.268;10.506;2023-05-09T02:56:07;101017.22;;;10.17;75.95
32638;BME280;19045;52.268;10.506;2023-05-09T02:58:35;101010.44;;;10.15;76.33
32638;BME280;19045;52.268;10.506;2023-05-09T03:01:01;101017.22;;;10.06;76.45
32638;BME280;19045;52.268;10.506;2023-05-09T03:03:29;101005.66;;;10.05;76.73
32638;BME280;19045;52.268;10.506;2023-05-09T03:05:58;101016.81;;;9.97;76.85
32638;BME280;19045;52.268;10.506;2023-05-09T03:08:25;101002.78;;;9.95;77.24
32638;BME280;19045;52.268;10.506;2023-05-09T03:10:53;101007.59;;;9.93;77.50
32638;BME280;19045;52.268;10.506;2023-05-09T03:13:20;101009.94;;;9.90;77.55
32638;BME280;19045;52.268;10.506;2023-05-09T03:15:46;101003.88;;;9.94;77.77
32638;BME280;19045;52.268;10.506;2023-05-09T03:18:13;101003.53;;;9.79;77.92
32638;BME280;19045;52.268;10.506;2023-05-09T03:20:40;101011.97;;;9.71;78.51
32638;BME280;19045;52.268;10.506;2023-05-09T03:23:06;101009.38;;;9.76;78.37
32638;BME280;19045;52.268;10.506;2023-05-09T03:25:34;101006.69;;;9.76;78.58
32638;BME280;19045;52.268;10.506;2023-05-09T03:28:03;101003.53;;;9.79;78.56
32638;BME280;19045;52.268;10.506;2023-05-09T03:30:30;100995.75;;;9.66;78.74
32638;BME280;19045;52.268;10.506;2023-05-09T03:32:56;100997.16;;;9.68;78.99
32638;BME280;19045;52.268;10.506;2023-05-09T03:35:23;100993.22;;;9.59;79.33
32638;BME280;19045;52.268;10.506;2023-05-09T03:37:51;100992.94;;;9.72;78.55
32638;BME280;19045;52.268;10.506;2023-05-09T03:40:17;100990.41;;;9.66;79.06
32638;BME280;19045;52.268;10.506;2023-05-09T03:42:44;100987.38;;;9.62;78.97
32638;BME280;19045;52.268;10.506;2023-05-09T03:45:12;100992.16;;;9.60;79.30
32638;BME280;19045;52.268;10.506;2023-05-09T03:47:39;100990.88;;;9.63;79.49
32638;BME280;19045;52.268;10.506;2023-05-09T03:50:06;100989.72;;;9.59;79.18
32638;BME280;19045;52.268;10.506;2023-05-09T03:52:33;100987.63;;;9.61;79.49
32638;BME280;19045;52.268;10.506;2023-05-09T03:55:01;100987.63;;;9.61;80.01
32638;BME280;19045;52.268;10.506;2023-05-09T03:57:28;100994.72;;;9.55;79.74
32638;BME280;19045;52.268;10.506;2023-05-09T03:59:54;100986.47;;;9.57;79.77
32638;BME280;19045;52.268;10.506;2023-05-09T04:02:24;100978.03;;;9.65;79.40
32638;BME280;19045;52.268;10.506;2023-05-09T04:04:50;100981.66;;;9.59;79.79
32638;BME280;19045;52.268;10.506;2023-05-09T04:07:18;100979.66;;;9.66;79.76
32638;BME280;19045;52.268;10.506;2023-05-09T04:09:46;100985.72;;;9.73;79.20
32638;BME280;19045;52.268;10.506;2023-05-09T04:12:13;100973.34;;;9.72;79.16
32638;BME280;19045;52.268;10.506;2023-05-09T04:14:40;100980.47;;;9.66;79.40
32638;BME280;19045;52.268;10.506;2023-05-09T04:17:07;100970.56;;;9.67;79.60
32638;BME280;19045;52.268;10.506;2023-05-09T04:19:35;100974.78;;;9.63;79.79
32638;BME280;19045;52.268;10.506;2023-05-09T04:22:02;100973.13;;;9.62;79.64
32638;BME280;19045;52.268;10.506;2023-05-09T04:24:28;100977.59;;;9.56;79.52
32638;BME280;19045;52.268;10.506;2023-05-09T04:26:55;100973.25;;;9.67;79.54
32638;BME280;19045;52.268;10.506;2023-05-09T04:29:22;100974.78;;;9.63;79.52
32638;BME280;19045;52.268;10.506;2023-05-09T04:31:49;100970.38;;;9.57;80.14
32638;BME280;19045;52.268;10.506;2023-05-09T04:34:15;100966.72;;;9.63;79.93
32638;BME280;19045;52.268;10.506;2023-05-09T04:36:43;100966.47;;;9.76;79.69
32638;BME280;19045;52.268;10.506;2023-05-09T04:39:10;100968.28;;;9.87;79.21
32638;BME280;19045;52.268;10.506;2023-05-09T04:41:37;100960.78;;;10.01;77.92
32638;BME280;19045;52.268;10.506;2023-05-09T04:44:04;100965.41;;;10.17;77.59
32638;BME280;19045;52.268;10.506;2023-05-09T04:46:30;100961.09;;;10.32;76.27
32638;BME280;19045;52.268;10.506;2023-05-09T04:48:57;100962.25;;;10.36;76.63
32638;BME280;19045;52.268;10.506;2023-05-09T04:51:24;100960.47;;;10.42;75.61
32638;BME280;19045;52.268;10.506;2023-05-09T04:53:52;100963.31;;;10.52;75.19
32638;BME280;19045;52.268;10.506;2023-05-09T04:56:18;100961.63;;;10.63;74.60
32638;BME280;19045;52.268;10.506;2023-05-09T04:58:46;100977.41;;;10.59;74.70
32638;BME280;19045;52.268;10.506;2023-05-09T05:01:12;100971.56;;;10.62;74.39
32638;BME280;19045;52.268;10.506;2023-05-09T05:03:40;100973.56;;;10.55;74.62
32638;BME280;19045;52.268;10.506;2023-05-09T05:06:06;100968.31;;;10.60;74.92
32638;BME280;19045;52.268;10.506;2023-05-09T05:08:33;100968.78;;;10.74;74.65
32638;BME280;19045;52.268;10.506;2023-05-09T05:11:01;100967.97;;;10.90;75.25
32638;BME280;19045;52.268;10.506;2023-05-09T05:13:28;100966.72;;;10.98;74.50
32638;BME280;19045;52.268;10.506;2023-05-09T05:15:55;100974.72;;;11.09;73.16
32638;BME280;19045;52.268;10.506;2023-05-09T05:18:22;100967.31;;;11.38;72.19
32638;BME280;19045;52.268;10.506;2023-05-09T05:20:49;100967.50;;;11.53;71.07
32638;BME280;19045;52.268;10.506;2023-05-09T05:23:15;100959.84;;;11.67;71.04
32638;BME280;19045;52.268;10.506;2023-05-09T05:25:42;100956.44;;;11.71;70.16
32638;BME280;19045;52.268;10.506;2023-05-09T05:28:10;100962.88;;;11.92;69.75
32638;BME280;19045;52.268;10.506;2023-05-09T05:30:37;100956.78;;;12.02;69.55
32638;BME280;19045;52.268;10.506;2023-05-09T05:33:05;100956.31;;;12.10;67.81
32638;BME280;19045;52.268;10.506;2023-05-09T05:35:32;100948.94;;;12.22;67.09
32638;BME280;19045;52.268;10.506;2023-05-09T05:37:58;100943.56;;;12.27;66.67
32638;BME280;19045;52.268;10.506;2023-05-09T05:40:25;100941.94;;;12.53;65.87
32638;BME280;19045;52.268;10.506;2023-05-09T05:42:51;100942.94;;;12.47;65.52
32638;BME280;19045;52.268;10.506;2023-05-09T05:45:20;100940.72;;;12.38;64.73
32638;BME280;19045;52.268;10.506;2023-05-09T05:47:46;100941.09;;;12.20;65.82
32638;BME280;19045;52.268;10.506;2023-05-09T05:50:13;100939.78;;;12.23;65.88
32638;BME280;19045;52.268;10.506;2023-05-09T05:52:40;100936.56;;;12.26;65.63
32638;BME280;19045;52.268;10.506;2023-05-09T05:55:07;100941.34;;;12.46;65.12
32638;BME280;19045;52.268;10.506;2023-05-09T05:57:34;100937.03;;;12.50;64.53
32638;BME280;19045;52.268;10.506;2023-05-09T06:00:02;100926.25;;;12.50;64.60
32638;BME280;19045;52.268;10.506;2023-05-09T06:02:35;100933.97;;;12.73;63.79
32638;BME280;19045;52.268;10.506;2023-05-09T06:05:01;100928.38;;;12.79;64.06
32638;BME280;19045;52.268;10.506;2023-05-09T06:07:29;100932.59;;;13.07;63.08
32638;BME280;19045;52.268;10.506;2023-05-09T06:09:55;100921.19;;;13.32;61.85
32638;BME280;19045;52.268;10.506;2023-05-09T06:12:22;100920.97;;;13.54;61.31
32638;BME280;19045;52.268;10.506;2023-05-09T06:14:48;100925.63;;;13.68;60.35
32638;BME280;19045;52.268;10.506;2023-05-09T06:17:15;100909.13;;;13.60;60.71
32638;BME280;19045;52.268;10.506;2023-05-09T06:19:43;100909.16;;;13.70;59.99
32638;BME280;19045;52.268;10.506;2023-05-09T06:22:10;100912.94;;;13.69;59.59
32638;BME280;19045;52.268;10.506;2023-05-09T06:24:36;100908.91;;;13.76;59.80
32638;BME280;19045;52.268;10.506;2023-05-09T06:27:03;100910.00;;;13.85;59.63
32638;BME280;19045;52.268;10.506;2023-05-09T06:29:30;100906.25;;;13.96;58.94
32638;BME280;19045;52.268;10.506;2023-05-09T06:31:56;100897.06;;;14.03;58.74
32638;BME280;19045;52.268;10.506;2023-05-09T06:34:23;100906.81;;;14.19;59.01
32638;BME280;19045;52.268;10.506;2023-05-09T06:36:51;100890.34;;;14.25;58.16
32638;BME280;19045;52.268;10.506;2023-05-09T06:39:17;100895.25;;;14.33;58.07
32638;BME280;19045;52.268;10.506;2023-05-09T06:41:44;100892.81;;;14.47;57.71
32638;BME280;19045;52.268;10.506;2023-05-09T06:44:11;100888.75;;;14.39;58.00
32638;BME280;19045;52.268;10.506;2023-05-09T06:46:37;100884.69;;;14.52;57.30
32638;BME280;19045;52.268;10.506;2023-05-09T06:49:04;100885.69;;;14.91;56.03
32638;BME280;19045;52.268;10.506;2023-05-09T06:51:31;100884.91;;;14.86;55.81
32638;BME280;19045;52.268;10.506;2023-05-09T06:53:59;100866.44;;;15.08;55.83
32638;BME280;19045;52.268;10.506;2023-05-09T06:56:26;100884.03;;;15.11;55.87
32638;BME280;19045;52.268;10.506;2023-05-09T06:58:52;100882.66;;;15.18;55.42
32638;BME280;19045;52.268;10.506;2023-05-09T07:01:19;100868.84;;;15.20;55.13
32638;BME280;19045;52.268;10.506;2023-05-09T07:03:46;100879.44;;;15.11;55.28
32638;BME280;19045;52.268;10.506;2023-05-09T07:06:12;100863.09;;;15.31;54.87
32638;BME280;19045;52.268;10.506;2023-05-09T07:08:39;100865.75;;;15.57;54.65
32638;BME280;19045;52.268;10.506;2023-05-09T07:11:07;100862.38;;;15.75;54.08
32638;BME280;19045;52.268;10.506;2023-05-09T07:13:33;100855.75;;;15.91;53.98
32638;BME280;19045;52.268;10.506;2023-05-09T07:16:00;100856.13;;;15.74;54.36
32638;BME280;19045;52.268;10.506;2023-05-09T07:18:27;100856.56;;;15.91;53.79
32638;BME280;19045;52.268;10.506;2023-05-09T07:20:54;100857.13;;;15.93;53.72
32638;BME280;19045;52.268;10.506;2023-05-09T07:23:21;100852.44;;;16.04;52.45
32638;BME280;19045;52.268;10.506;2023-05-09T07:25:54;100860.44;;;16.19;53.36
32638;BME280;19045;52.268;10.506;2023-05-09T07:28:22;100851.06;;;16.01;52.48
32638;BME280;19045;52.268;10.506;2023-05-09T07:30:49;100849.75;;;16.33;52.35
32638;BME280;19045;52.268;10.506;2023-05-09T07:33:16;100840.31;;;16.59;51.71
32638;BME280;19045;52.268;10.506;2023-05-09T07:35:43;100845.00;;;17.01;50.24
32638;BME280;19045;52.268;10.506;2023-05-09T07:38:10;100841.47;;;17.24;49.82
32638;BME280;19045;52.268;10.506;2023-05-09T07:40:36;100834.72;;;17.22;50.05
32638;BME280;19045;52.268;10.506;2023-05-09T07:43:03;100835.22;;;17.24;50.49
32638;BME280;19045;52.268;10.506;2023-05-09T07:45:31;100835.66;;;17.12;51.03
32638;BME280;19045;52.268;10.506;2023-05-09T07:47:59;100826.81;;;17.01;50.20
32638;BME280;19045;52.268;10.506;2023-05-09T07:50:25;100819.16;;;17.27;50.23
32638;BME280;19045;52.268;10.506;2023-05-09T07:52:52;100821.34;;;17.25;50.55
32638;BME280;19045;52.268;10.506;2023-05-09T07:55:19;100816.31;;;17.37;49.87
32638;BME280;19045;52.268;10.506;2023-05-09T07:57:46;100815.81;;;17.12;50.49
32638;BME280;19045;52.268;10.506;2023-05-09T08:00:14;100816.97;;;16.87;51.34
32638;BME280;19045;52.268;10.506;2023-05-09T08:02:42;100800.00;;;17.19;51.08
32638;BME280;19045;52.268;10.506;2023-05-09T08:05:08;100796.69;;;17.40;50.18
32638;BME280;19045;52.268;10.506;2023-05-09T08:07:37;100794.78;;;17.41;50.30
32638;BME280;19045;52.268;10.506;2023-05-09T08:10:05;100791.59;;;17.58;49.88
32638;BME280;19045;52.268;10.506;2023-05-09T08:12:32;100792.16;;;17.73;49.88
32638;BME280;19045;52.268;10.506;2023-05-09T08:14:58;100780.72;;;17.58;50.39
32638;BME280;19045;52.268;10.506;2023-05-09T08:17:25;100781.47;;;17.63;50.45
32638;BME280;19045;52.268;10.506;2023-05-09T08:19:53;100769.09;;;17.89;49.42
32638;BME280;19045;52.268;10.506;2023-05-09T08:22:20;100776.00;;;17.82;49.10
32638;BME280;19045;52.268;10.506;2023-05-09T08:24:46;100785.19;;;17.86;49.15
32638;BME280;19045;52.268;10.506;2023-05-09T08:27:13;100767.59;;;17.97;49.20
32638;BME280;19045;52.268;10.506;2023-05-09T08:29:40;100760.53;;;18.28;48.44
32638;BME280;19045;52.268;10.506;2023-05-09T08:32:07;100764.38;;;18.41;47.49
32638;BME280;19045;52.268;10.506;2023-05-09T08:34:33;100770.19;;;18.21;47.55
32638;BME280;19045;52.268;10.506;2023-05-09T08:37:02;100771.75;;;18.08;48.04
32638;BME280;19045;52.268;10.506;2023-05-09T08:39:29;100764.81;;;18.02;48.40
32638;BME280;19045;52.268;10.506;2023-05-09T08:41:57;100752.19;;;17.92;48.18
32638;BME280;19045;52.268;10.506;2023-05-09T08:44:24;100749.22;;;18.21;47.59
32638;BME280;19045;52.268;10.506;2023-05-09T08:46:55;100759.63;;;18.19;47.51
32638;BME280;19045;52.268;10.506;2023-05-09T08:49:23;100741.53;;;17.96;47.68
32638;BME280;19045;52.268;10.506;2023-05-09T08:51:49;100737.34;;;18.17;48.13
32638;BME280;19045;52.268;10.506;2023-05-09T08:54:19;100728.94;;;18.59;47.74
32638;BME280;19045;52.268;10.506;2023-05-09T08:56:46;100748.38;;;18.80;47.51
32638;BME280;19045;52.268;10.506;2023-05-09T08:59:13;100734.78;;;18.67;47.78
32638;BME280;19045;52.268;10.506;2023-05-09T09:01:42;100732.97;;;18.62;48.53
32638;BME280;19045;52.268;10.506;2023-05-09T09:04:09;100729.44;;;18.62;47.53
32638;BME280;19045;52.268;10.506;2023-05-09T09:06:38;100730.25;;;18.76;47.25
32638;BME280;19045;52.268;10.506;2023-05-09T09:09:06;100726.81;;;18.84;46.25
32638;BME280;19045;52.268;10.506;2023-05-09T09:11:36;100720.34;;;18.93;46.33
32638;BME280;19045;52.268;10.506;2023-05-09T09:14:06;100715.03;;;19.24;46.05
32638;BME280;19045;52.268;10.506;2023-05-09T09:16:36;100708.50;;;19.92;44.58
32638;BME280;19045;52.268;10.506;2023-05-09T09:19:04;100708.72;;;20.83;43.17
32638;BME280;19045;52.268;10.506;2023-05-09T09:21:35;100707.19;;;21.33;42.13
32638;BME280;19045;52.268;10.506;2023-05-09T09:24:04;100709.25;;;21.45;41.61
32638;BME280;19045;52.268;10.506;2023-05-09T09:26:33;100712.47;;;21.73;40.90
32638;BME280;19045;52.268;10.506;2023-05-09T09:29:01;100703.31;;;21.60;41.10
32638;BME280;19045;52.268;10.506;2023-05-09T09:31:30;100697.50;;;21.70;41.10
32638;BME280;19045;52.268;10.506;2023-05-09T09:34:01;100694.44;;;21.80;40.52
32638;BME280;19045;52.268;10.506;2023-05-09T09:36:29;100701.59;;;22.19;39.85
32638;BME280;19045;52.268;10.506;2023-05-09T09:38:57;100689.16;;;22.30;39.77
32638;BME280;19045;52.268;10.506;2023-05-09T09:41:29;100691.38;;;21.64;40.54
32638;BME280;19045;52.268;10.506;2023-05-09T09:43:57;100676.63;;;21.57;40.66
32638;BME280;19045;52.268;10.506;2023-05-09T09:46:25;100676.00;;;21.34;41.12
32638;BME280;19045;52.268;10.506;2023-05-09T09:48:51;100676.94;;;21.55;40.62
32638;BME280;19045;52.268;10.506;2023-05-09T09:51:21;100672.13;;;21.35;40.67
32638;BME280;19045;52.268;10.506;2023-05-09T09:53:53;100664.41;;;21.46;40.85
32638;BME280;19045;52.268;10.506;2023-05-09T09:56:19;100662.84;;;21.10;41.63
32638;BME280;19045;52.268;10.506;2023-05-09T09:58:46;100663.00;;;21.14;41.43
32638;BME280;19045;52.268;10.506;2023-05-09T10:01:13;100664.91;;;21.39;41.17
32638;BME280;19045;52.268;10.506;2023-05-09T10:03:43;100675.38;;;21.37;41.15
32638;BME280;19045;52.268;10.506;2023-05-09T10:06:11;100657.84;;;21.21;40.97
32638;BME280;19045;52.268;10.506;2023-05-09T10:08:38;100641.13;;;21.14;41.78
32638;BME280;19045;52.268;10.506;2023-05-09T10:11:05;100644.78;;;21.52;41.10
32638;BME280;19045;52.268;10.506;2023-05-09T10:13:33;100641.00;;;21.83;41.18
32638;BME280;19045;52.268;10.506;2023-05-09T10:16:00;100630.31;;;21.60;40.72
32638;BME280;19045;52.268;10.506;2023-05-09T10:18:29;100614.56;;;21.40;41.69
32638;BME280;19045;52.268;10.506;2023-05-09T10:20:58;100623.44;;;21.37;41.58
32638;BME280;19045;52.268;10.506;2023-05-09T10:23:28;100625.38;;;21.11;42.55
32638;BME280;19045;52.268;10.506;2023-05-09T10:26:02;100613.28;;;20.95;43.16
32638;BME280;19045;52.268;10.506;2023-05-09T10:28:32;100625.97;;;21.42;42.18
32638;BME280;19045;52.268;10.506;2023-05-09T10:31:06;100598.97;;;21.32;42.37
32638;BME280;19045;52.268;10.506;2023-05-09T10:33:41;100621.44;;;21.63;42.64
32638;BME280;19045;52.268;10.506;2023-05-09T10:36:10;100611.84;;;21.95;42.07
32638;BME280;19045;52.268;10.506;2023-05-09T10:38:38;100611.50;;;22.35;41.77
32638;BME280;19045;52.268;10.506;2023-05-09T10:41:05;100608.38;;;21.69;41.27
32638;BME280;19045;52.268;10.506;2023-05-09T10:43:32;100597.84;;;21.50;42.48
32638;BME280;19045;52.268;10.506;2023-05-09T10:46:00;100592.78;;;21.70;42.71
32638;BME280;19045;52.268;10.506;2023-05-09T10:48:28;100584.84;;;21.94;41.96
32638;BME280;19045;52.268;10.506;2023-05-09T10:50:55;100593.56;;;21.79;42.58
32638;BME280;19045;52.268;10.506;2023-05-09T10:53:23;100581.78;;;21.32;43.23
32638;BME280;19045;52.268;10.506;2023-05-09T10:56:01;100567.66;;;21.76;42.76
32638;BME280;19045;52.268;10.506;2023-05-09T10:58:29;100570.91;;;21.61;42.50
32638;BME280;19045;52.268;10.506;2023-05-09T11:00:59;100573.84;;;21.56;43.30
32638;BME280;19045;52.268;10.506;2023-05-09T11:03:27;100557.56;;;21.68;43.29
32638;BME280;19045;52.268;10.506;2023-05-09T11:05:57;100558.59;;;22.22;42.25
32638;BME280;19045;52.268;10.506;2023-05-09T11:08:26;100554.59;;;22.20;42.28
32638;BME280;19045;52.268;10.506;2023-05-09T11:10:54;100543.63;;;21.52;42.76
32638;BME280;19045;52.268;10.506;2023-05-09T11:13:22;100542.31;;;21.58;42.97
32638;BME280;19045;52.268;10.506;2023-05-09T11:16:02;100530.47;;;21.46;43.51
32638;BME280;19045;52.268;10.506;2023-05-09T11:18:29;100527.19;;;21.61;44.20
32638;BME280;19045;52.268;10.506;2023-05-09T11:20:56;100516.72;;;22.01;43.38
32638;BME280;19045;52.268;10.506;2023-05-09T11:23:28;100517.56;;;22.22;42.38
32638;BME280;19045;52.268;10.506;2023-05-09T11:26:04;100525.56;;;21.98;42.24
32638;BME280;19045;52.268;10.506;2023-05-09T11:28:33;100513.72;;;22.14;42.72
32638;BME280;19045;52.268;10.506;2023-05-09T11:31:09;100508.94;;;22.74;41.99
32638;BME280;19045;52.268;10.506;2023-05-09T11:33:37;100501.59;;;22.65;41.52
32638;BME280;19045;52.268;10.506;2023-05-09T11:36:18;100541.41;;;22.42;41.81
32638;BME280;19045;52.268;10.506;2023-05-09T11:39:00;100493.31;;;22.12;42.78
32638;BME280;19045;52.268;10.506;2023-05-09T11:41:27;100486.19;;;22.40;42.30
32638;BME280;19045;52.268;10.506;2023-05-09T11:43:54;100484.59;;;22.39;42.07
32638;BME280;19045;52.268;10.506;2023-05-09T11:46:23;100486.94;;;22.70;41.95
32638;BME280;19045;52.268;10.506;2023-05-09T11:48:50;100478.31;;;22.80;41.96
32638;BME280;19045;52.268;10.506;2023-05-09T11:51:17;100467.13;;;22.85;41.12
32638;BME280;19045;52.268;10.506;2023-05-09T11:53:48;100486.38;;;22.35;42.18
32638;BME280;19045;52.268;10.506;2023-05-09T11:56:17;100475.34;;;22.85;41.71
32638;BME280;19045;52.268;10.506;2023-05-09T11:58:43;100470.59;;;23.06;41.15
32638;BME280;19045;52.268;10.506;2023-05-09T12:01:11;100460.63;;;23.59;40.12
32638;BME280;19045;52.268;10.506;2023-05-09T12:03:41;100466.00;;;23.55;39.97
32638;BME280;19045;52.268;10.506;2023-05-09T12:06:08;100453.72;;;23.29;39.85
32638;BME280;19045;52.268;10.506;2023-05-09T12:08:39;100454.78;;;23.36;39.69
32638;BME280;19045;52.268;10.506;2023-05-09T12:11:07;100452.94;;;23.28;39.86
32638;BME280;19045;52.268;10.506;2023-05-09T12:13:35;100471.63;;;22.69;40.57
32638;BME280;19045;52.268;10.506;2023-05-09T12:16:02;100448.16;;;22.59;40.71
32638;BME280;19045;52.268;10.506;2023-05-09T12:18:28;100442.31;;;22.49;40.53
32638;BME280;19045;52.268;10.506;2023-05-09T12:20:56;100445.88;;;22.82;40.43
32638;BME280;19045;52.268;10.506;2023-05-09T12:23:22;100435.38;;;22.31;41.03
32638;BME280;19045;52.268;10.506;2023-05-09T12:25:52;100432.53;;;22.60;40.92
32638;BME280;19045;52.268;10.506;2023-05-09T12:28:20;100424.91;;;22.65;40.79
32638;BME280;19045;52.268;10.506;2023-05-09T12:30:49;100447.72;;;22.37;40.85
32638;BME280;19045;52.268;10.506;2023-05-09T12:33:16;100426.28;;;22.39;41.40
32638;BME280;19045;52.268;10.506;2023-05-09T12:35:44;100405.53;;;23.03;40.41
32638;BME280;19045;52.268;10.506;2023-05-09T12:38:13;100417.66;;;23.63;39.42
32638;BME280;19045;52.268;10.506;2023-05-09T12:40:40;100409.09;;;23.52;38.80
32638;BME280;19045;52.268;10.506;2023-05-09T12:43:07;100403.81;;;23.72;38.86
32638;BME280;19045;52.268;10.506;2023-05-09T12:45:34;100419.53;;;22.90;40.20
32638;BME280;19045;52.268;10.506;2023-05-09T12:48:02;100410.25;;;22.49;40.85